createdAt,value
2023-04-25T04:15:12.988Z,3.70
2023-04-25T04:16:12.970Z,3.40
2023-04-25T04:17:12.948Z,3.70
2023-04-25T04:18:12.991Z,4.00
2023-04-25T04:19:13.204Z,3.70
2023-04-25T04:20:12.916Z,4.30
2023-04-25T04:21:12.885Z,3.90
2023-04-25T04:22:12.871Z,3.60
2023-04-25T04:23:12.861Z,3.40
2023-04-25T04:24:12.839Z,3.30
2023-04-25T04:25:12.859Z,5.00
2023-04-25T04:26:12.820Z,3.70
2023-04-25T04:27:12.861Z,3.60
2023-04-25T04:28:12.796Z,4.30
2023-04-25T04:29:12.780Z,4.20
2023-04-25T04:30:12.773Z,3.60
2023-04-25T04:31:12.785Z,3.40
2023-04-25T04:32:12.737Z,4.30
2023-04-25T04:33:12.789Z,3.40
2023-04-25T04:34:12.705Z,3.80
2023-04-25T04:35:12.724Z,3.70
2023-04-25T04:36:12.686Z,3.70
2023-04-25T04:37:12.678Z,3.50
2023-04-25T04:38:12.668Z,3.50
2023-04-25T04:39:12.695Z,3.90
2023-04-25T04:40:12.664Z,3.90
2023-04-25T04:41:12.629Z,3.50
2023-04-25T04:42:12.603Z,3.20
2023-04-25T04:43:12.600Z,3.60
2023-04-25T04:44:12.590Z,3.50
2023-04-25T04:45:12.590Z,3.50
2023-04-25T04:46:12.582Z,3.40
2023-04-25T04:47:12.547Z,3.10
2023-04-25T04:48:12.607Z,3.30
2023-04-25T04:49:12.518Z,3.10
2023-04-25T04:50:12.520Z,3.30
2023-04-25T04:51:12.494Z,3.10
2023-04-25T04:52:12.497Z,2.80
2023-04-25T04:53:12.469Z,3.40
2023-04-25T04:54:12.454Z,3.20
2023-04-25T04:55:12.454Z,2.90
2023-04-25T04:56:12.435Z,2.70
2023-04-25T04:57:12.420Z,3.00
2023-04-25T04:58:12.404Z,3.40
2023-04-25T04:59:12.413Z,3.20
2023-04-25T05:00:12.382Z,3.00
2023-04-25T05:01:12.412Z,3.40
2023-04-25T05:02:12.433Z,2.80
2023-04-25T05:03:12.556Z,3.10
2023-04-25T05:04:12.545Z,3.20
2023-04-25T05:05:12.324Z,3.40
2023-04-25T05:06:12.294Z,3.20
2023-04-25T05:07:12.285Z,3.40
2023-04-25T05:08:12.267Z,3.20
2023-04-25T05:09:12.266Z,2.80
2023-04-25T05:10:12.266Z,2.80
2023-04-25T05:11:12.239Z,3.90
2023-04-25T05:12:12.223Z,2.90
2023-04-25T05:13:12.268Z,2.90
2023-04-25T05:14:12.194Z,3.40
2023-04-25T05:15:12.198Z,5.30
2023-04-25T05:16:12.201Z,2.90
2023-04-25T05:17:12.187Z,3.50
2023-04-25T05:18:12.199Z,3.10
2023-04-25T05:19:12.159Z,3.60
2023-04-25T05:20:12.126Z,2.90
2023-04-25T05:21:12.106Z,3.00
2023-04-25T05:22:12.087Z,3.00
2023-04-25T05:23:12.082Z,3.10
2023-04-25T05:24:12.064Z,2.80
2023-04-25T05:25:12.076Z,3.20
2023-04-25T05:26:12.031Z,3.00
2023-04-25T05:27:12.038Z,3.10
2023-04-25T05:28:12.017Z,2.80
2023-04-25T05:29:12.018Z,3.10
2023-04-25T05:30:11.995Z,2.90
2023-04-25T05:31:11.992Z,3.10
2023-04-25T05:32:12.037Z,2.70
2023-04-25T05:33:12.000Z,2.90
2023-04-25T05:34:11.956Z,2.50
2023-04-25T05:35:11.974Z,2.90
2023-04-25T05:36:11.905Z,3.50
2023-04-25T05:37:11.917Z,2.70
2023-04-25T05:38:11.880Z,3.40
2023-04-25T05:39:11.883Z,3.10
2023-04-25T05:40:11.859Z,3.00
2023-04-25T05:41:11.835Z,2.70
2023-04-25T05:42:11.829Z,3.10
2023-04-25T05:43:11.823Z,2.40
2023-04-25T05:44:11.883Z,2.80
2023-04-25T05:45:11.799Z,2.80
2023-04-25T05:46:11.857Z,2.90
2023-04-25T05:47:11.765Z,2.90
2023-04-25T05:48:11.832Z,3.30
2023-04-25T05:49:11.783Z,3.20
2023-04-25T05:50:11.721Z,2.80
2023-04-25T05:51:11.713Z,2.70
2023-04-25T05:52:11.711Z,3.00
2023-04-25T05:53:11.682Z,2.70
2023-04-25T05:54:11.674Z,3.50
2023-04-25T05:55:11.666Z,3.30
2023-04-25T05:56:11.644Z,2.50
2023-04-25T05:57:11.634Z,2.60
2023-04-25T05:58:11.620Z,3.00
2023-04-25T05:59:11.620Z,2.60
2023-04-25T06:00:11.592Z,2.50
2023-04-25T06:01:11.588Z,2.80
2023-04-25T06:02:11.656Z,2.70
2023-04-25T06:03:11.735Z,2.80
2023-04-25T06:04:11.814Z,2.60
2023-04-25T06:05:11.712Z,3.20
2023-04-25T06:06:11.514Z,2.60
2023-04-25T06:07:11.500Z,2.70
2023-04-25T06:08:11.489Z,3.30
2023-04-25T06:09:12.723Z,2.50
2023-04-25T06:10:11.461Z,2.50
2023-04-25T06:11:11.452Z,2.80
2023-04-25T06:12:11.436Z,3.10
2023-04-25T06:13:11.432Z,2.60
2023-04-25T06:14:11.422Z,2.50
2023-04-25T06:15:24.441Z,2.90
2023-04-25T06:16:12.450Z,2.50
2023-04-25T06:17:11.374Z,2.50
2023-04-25T06:18:11.358Z,2.50
2023-04-25T06:19:11.354Z,2.70
2023-04-25T06:20:11.336Z,2.60
2023-04-25T06:21:11.328Z,2.80
2023-04-25T06:22:11.304Z,2.60
2023-04-25T06:23:11.296Z,3.40
2023-04-25T06:24:11.301Z,3.90
2023-04-25T06:25:11.273Z,2.90
2023-04-25T06:26:11.249Z,2.70
2023-04-25T06:27:11.242Z,2.80
2023-04-25T06:28:11.226Z,2.60
2023-04-25T06:29:11.230Z,2.60
2023-04-25T06:30:11.202Z,2.90
2023-04-25T06:31:11.232Z,2.70
2023-04-25T06:32:11.179Z,2.70
2023-04-25T06:33:11.274Z,2.70
2023-04-25T06:34:11.167Z,2.60
2023-04-25T06:35:11.139Z,2.20
2023-04-25T06:36:11.124Z,2.90
2023-04-25T06:37:11.120Z,3.00
2023-04-25T06:38:11.110Z,2.70
2023-04-25T06:39:11.106Z,2.80
2023-04-25T06:40:19.137Z,2.70
2023-04-25T06:41:11.064Z,3.20
2023-04-25T06:42:11.214Z,2.80
2023-04-25T06:43:11.046Z,3.30
2023-04-25T06:44:11.107Z,3.30
2023-04-25T06:45:11.046Z,3.00
2023-04-25T06:46:11.077Z,2.70
2023-04-25T06:47:10.987Z,3.00
2023-04-25T06:48:11.021Z,4.10
2023-04-25T06:49:11.001Z,2.90
2023-04-25T06:50:10.955Z,2.40
2023-04-25T06:51:10.942Z,2.50
2023-04-25T06:52:10.926Z,2.40
2023-04-25T06:53:10.909Z,2.80
2023-04-25T06:54:10.923Z,2.40
2023-04-25T06:55:10.882Z,2.40
2023-04-25T06:56:10.896Z,2.60
2023-04-25T06:57:10.880Z,2.30
2023-04-25T06:58:10.841Z,2.10
2023-04-25T06:59:10.887Z,2.10
2023-04-25T07:00:10.823Z,2.30
2023-04-25T07:01:10.834Z,2.10
2023-04-25T07:02:10.882Z,2.10
2023-04-25T07:03:10.997Z,2.50
2023-04-25T07:04:10.989Z,2.40
2023-04-25T07:05:10.755Z,2.10
2023-04-25T07:06:10.772Z,2.60
2023-04-25T07:07:10.745Z,2.40
2023-04-25T07:08:10.721Z,2.30
2023-04-25T07:09:10.710Z,2.10
2023-04-25T07:10:10.694Z,2.00
2023-04-25T07:11:10.682Z,2.70
2023-04-25T07:12:10.662Z,2.30
2023-04-25T07:13:10.652Z,2.00
2023-04-25T07:14:10.657Z,2.20
2023-04-25T07:15:10.628Z,1.90
2023-04-25T07:16:10.650Z,2.00
2023-04-25T07:17:10.605Z,2.40
2023-04-25T07:18:10.638Z,2.00
2023-04-25T07:19:10.601Z,2.30
2023-04-25T07:20:10.603Z,2.40
2023-04-25T07:21:10.557Z,2.10
2023-04-25T07:22:10.540Z,2.70
2023-04-25T07:23:10.547Z,2.20
2023-04-25T07:24:10.531Z,2.20
2023-04-25T07:25:10.503Z,1.60
2023-04-25T07:26:10.492Z,2.90
2023-04-25T07:27:10.480Z,1.70
2023-04-25T07:28:10.493Z,1.70
2023-04-25T07:29:10.479Z,1.80
2023-04-25T07:30:10.442Z,1.90
2023-04-25T07:31:10.426Z,1.90
2023-04-25T07:32:10.501Z,2.10
2023-04-25T07:33:10.442Z,2.00
2023-04-25T07:34:10.409Z,1.90
2023-04-25T07:35:10.396Z,2.10
2023-04-25T07:36:10.365Z,2.00
2023-04-25T07:37:10.354Z,1.90
2023-04-25T07:38:10.346Z,1.80
2023-04-25T07:39:10.326Z,2.10
2023-04-25T07:40:10.326Z,1.90
2023-04-25T07:41:10.295Z,1.90
2023-04-25T07:42:10.292Z,1.70
2023-04-25T07:43:10.284Z,2.00
2023-04-25T07:44:10.274Z,2.20
2023-04-25T07:45:10.256Z,2.00
2023-04-25T07:46:10.286Z,2.10
2023-04-25T07:47:10.226Z,2.20
2023-04-25T07:48:10.212Z,1.80
2023-04-25T07:49:10.216Z,2.00
2023-04-25T07:50:10.189Z,2.70
2023-04-25T07:51:10.165Z,1.90
2023-04-25T07:52:10.161Z,1.80
2023-04-25T07:53:10.144Z,1.80
2023-04-25T07:54:10.153Z,2.00
2023-04-25T07:55:10.115Z,1.40
2023-04-25T07:56:10.112Z,1.90
2023-04-25T07:57:10.110Z,1.90
2023-04-25T07:58:10.082Z,1.50
2023-04-25T07:59:10.081Z,1.70
2023-04-25T08:00:10.061Z,1.60
2023-04-25T08:01:10.052Z,1.80
2023-04-25T08:02:10.154Z,1.90
2023-04-25T08:03:10.155Z,1.60
2023-04-25T08:04:10.115Z,1.60
2023-04-25T08:05:10.278Z,1.60
2023-04-25T08:06:10.340Z,1.80
2023-04-25T08:07:09.971Z,1.60
2023-04-25T08:08:10.124Z,1.90
2023-04-25T08:09:09.952Z,1.70
2023-04-25T08:10:09.933Z,1.90
2023-04-25T08:11:09.922Z,1.50
2023-04-25T08:12:09.906Z,1.50
2023-04-25T08:13:09.893Z,1.60
2023-04-25T08:14:09.891Z,1.70
2023-04-25T08:15:09.871Z,1.60
2023-04-25T08:16:09.929Z,1.50
2023-04-25T08:17:09.845Z,1.90
2023-04-25T08:18:09.885Z,1.80
2023-04-25T08:19:09.817Z,1.50
2023-04-25T08:20:09.803Z,1.60
2023-04-25T08:21:09.798Z,1.60
2023-04-25T08:22:09.787Z,1.60
2023-04-25T08:23:09.764Z,1.60
2023-04-25T08:24:09.772Z,1.60
2023-04-25T08:25:09.744Z,2.10
2023-04-25T08:26:09.739Z,1.20
2023-04-25T08:27:09.720Z,1.50
2023-04-25T08:28:09.709Z,1.50
2023-04-25T08:29:09.698Z,1.40
2023-04-25T08:30:09.690Z,1.40
2023-04-25T08:31:09.671Z,1.30
2023-04-25T08:32:09.652Z,1.50
2023-04-25T08:33:09.667Z,1.60
2023-04-25T08:34:09.625Z,2.00
2023-04-25T08:35:09.685Z,1.50
2023-04-25T08:36:09.611Z,1.30
2023-04-25T08:37:09.595Z,1.20
2023-04-25T08:38:09.575Z,1.50
2023-04-25T08:39:09.677Z,1.40
2023-04-25T08:40:09.551Z,1.40
2023-04-25T08:41:09.531Z,1.80
2023-04-25T08:42:09.527Z,1.40
2023-04-25T08:43:09.499Z,1.80
2023-04-25T08:44:09.517Z,1.60
2023-04-25T08:45:09.475Z,1.20
2023-04-25T08:46:09.468Z,1.50
2023-04-25T08:47:09.508Z,1.70
2023-04-25T08:48:09.534Z,1.80
2023-04-25T08:49:09.447Z,1.30
2023-04-25T08:50:09.436Z,1.40
2023-04-25T08:52:09.390Z,1.40
2023-04-25T08:53:09.361Z,1.10
2023-04-25T08:54:15.611Z,1.20
2023-04-25T08:55:10.346Z,1.20
2023-04-25T08:56:09.332Z,1.30
2023-04-25T08:57:09.324Z,1.50
2023-04-25T08:58:09.333Z,1.30
2023-04-25T08:59:09.286Z,1.20
2023-04-25T09:00:09.283Z,1.50
2023-04-25T09:01:09.288Z,1.60
2023-04-25T09:02:09.369Z,1.20
2023-04-25T09:03:09.592Z,1.40
2023-04-25T09:04:09.367Z,1.50
2023-04-25T09:05:09.205Z,1.70
2023-04-25T09:06:09.194Z,1.20
2023-04-25T09:07:09.176Z,1.10
2023-04-25T09:08:09.168Z,1.20
2023-04-25T09:09:09.435Z,1.10
2023-04-25T09:10:09.172Z,1.00
2023-04-25T09:11:09.119Z,1.10
2023-04-25T09:12:09.133Z,1.10
2023-04-25T09:13:09.097Z,1.10
2023-04-25T09:14:09.101Z,1.10
2023-04-25T09:15:09.073Z,1.10
2023-04-25T09:16:09.120Z,1.00
2023-04-25T09:17:09.186Z,1.10
2023-04-25T09:18:09.096Z,1.30
2023-04-25T09:19:09.031Z,1.20
2023-04-25T09:20:09.017Z,1.00
2023-04-25T09:21:13.823Z,1.20
2023-04-25T09:22:10.022Z,1.40
2023-04-25T09:23:09.009Z,1.20
2023-04-25T09:24:08.960Z,2.50
2023-04-25T09:25:08.955Z,1.00
2023-04-25T09:26:08.929Z,1.40
2023-04-25T09:27:08.971Z,1.20
2023-04-25T09:28:08.930Z,1.10
2023-04-25T09:29:08.908Z,1.40
2023-04-25T09:30:08.884Z,1.30
2023-04-25T09:31:08.864Z,1.60
2023-04-25T09:32:08.872Z,1.30
2023-04-25T09:33:08.891Z,1.50
2023-04-25T09:34:08.834Z,1.30
2023-04-25T09:35:08.812Z,1.10
2023-04-25T09:36:08.815Z,1.20
2023-04-25T09:37:08.814Z,1.10
2023-04-25T09:38:08.775Z,1.30
2023-04-25T09:39:08.827Z,1.20
2023-04-25T09:40:08.753Z,0.90
2023-04-25T09:41:08.738Z,1.60
2023-04-25T09:42:08.754Z,1.30
2023-04-25T09:43:08.707Z,1.30
2023-04-25T09:44:08.690Z,1.00
2023-04-25T09:45:08.703Z,1.10
2023-04-25T09:46:08.681Z,1.30
2023-04-25T09:47:08.649Z,1.10
2023-04-25T09:48:08.684Z,1.50
2023-04-25T09:49:08.629Z,1.20
2023-04-25T09:50:08.611Z,1.20
2023-04-25T09:51:08.605Z,1.40
2023-04-25T09:52:08.597Z,3.00
2023-04-25T09:53:08.586Z,1.30
2023-04-25T09:54:08.554Z,1.40
2023-04-25T09:55:08.593Z,1.00
2023-04-25T09:56:08.566Z,1.40
2023-04-25T09:57:08.522Z,1.10
2023-04-25T09:58:08.509Z,1.70
2023-04-25T09:59:08.507Z,1.00
2023-04-25T10:00:08.486Z,1.20
2023-04-25T10:01:08.503Z,0.90
2023-04-25T10:02:08.462Z,0.80
2023-04-25T10:03:08.567Z,0.90
2023-04-25T10:04:08.484Z,0.90
2023-04-25T10:05:08.490Z,1.10
2023-04-25T10:06:08.409Z,0.90
2023-04-25T10:07:08.436Z,0.90
2023-04-25T10:08:08.372Z,1.00
2023-04-25T10:09:08.375Z,1.10
2023-04-25T10:10:08.347Z,1.00
2023-04-25T10:11:08.341Z,0.90
2023-04-25T10:12:08.330Z,1.10
2023-04-25T10:13:08.307Z,1.10
2023-04-25T10:14:08.311Z,1.10
2023-04-25T10:15:08.283Z,0.90
2023-04-25T10:16:08.354Z,1.10
2023-04-25T10:17:08.263Z,1.40
2023-04-25T10:18:08.460Z,1.00
2023-04-25T10:19:08.256Z,1.10
2023-04-25T10:20:08.233Z,0.80
2023-04-25T10:21:08.213Z,1.40
2023-04-25T10:22:08.210Z,1.10
2023-04-25T10:23:08.200Z,1.10
2023-04-25T10:24:08.166Z,1.00
2023-04-25T10:25:08.176Z,1.40
2023-04-25T10:26:08.143Z,1.20
2023-04-25T10:27:08.148Z,0.90
2023-04-25T10:28:08.113Z,1.10
2023-04-25T10:29:08.114Z,1.30
2023-04-25T10:30:08.121Z,1.10
2023-04-25T10:31:08.133Z,1.00
2023-04-25T10:32:08.141Z,1.10
2023-04-25T10:33:08.051Z,1.10
2023-04-25T10:34:08.033Z,1.00
2023-04-25T10:35:08.101Z,1.20
2023-04-25T10:36:08.014Z,1.20
2023-04-25T10:37:08.010Z,1.10
2023-04-25T10:38:07.985Z,0.90
2023-04-25T10:39:07.982Z,1.10
2023-04-25T10:40:07.974Z,1.00
2023-04-25T10:41:07.949Z,1.00
2023-04-25T10:42:07.935Z,1.10
2023-04-25T10:43:07.940Z,1.10
2023-04-25T10:44:07.897Z,1.00
2023-04-25T10:45:07.920Z,0.90
2023-04-25T10:46:07.902Z,1.00
2023-04-25T10:47:07.895Z,0.70
2023-04-25T10:48:07.891Z,1.10
2023-04-25T10:49:07.863Z,0.90
2023-04-25T10:50:07.841Z,0.90
2023-04-25T10:51:07.826Z,1.20
2023-04-25T10:52:07.806Z,1.00
2023-04-25T10:53:07.793Z,0.90
2023-04-25T10:54:07.786Z,1.40
2023-04-25T10:55:07.797Z,0.90
2023-04-25T10:56:08.320Z,0.90
2023-04-25T10:57:07.743Z,0.80
2023-04-25T10:58:07.728Z,1.00
2023-04-25T10:59:07.713Z,1.10
2023-04-25T11:00:07.715Z,0.90
2023-04-25T11:01:07.728Z,0.80
2023-04-25T11:02:07.874Z,1.10
2023-04-25T11:03:07.856Z,0.90
2023-04-25T11:04:07.982Z,1.00
2023-04-25T11:05:07.650Z,0.90
2023-04-25T11:06:07.619Z,1.00
2023-04-25T11:07:08.478Z,0.90
2023-04-25T11:08:08.534Z,1.00
2023-04-25T11:09:07.578Z,1.00
2023-04-25T11:10:07.635Z,0.90
2023-04-25T11:11:07.554Z,0.90
2023-04-25T11:12:07.550Z,1.00
2023-04-25T11:13:07.527Z,0.90
2023-04-25T11:14:07.525Z,1.00
2023-04-25T11:15:07.530Z,0.90
2023-04-25T11:16:12.844Z,1.00
2023-04-25T11:17:08.548Z,1.10
2023-04-25T11:18:08.482Z,1.20
2023-04-25T11:19:07.451Z,1.30
2023-04-25T11:20:07.471Z,1.00
2023-04-25T11:21:07.421Z,1.00
2023-04-25T11:22:07.459Z,1.00
2023-04-25T11:23:07.439Z,1.40
2023-04-25T11:24:07.389Z,1.00
2023-04-25T11:25:07.390Z,1.20
2023-04-25T11:26:07.362Z,1.10
2023-04-25T11:27:07.374Z,1.20
2023-04-25T11:28:07.341Z,1.20
2023-04-25T11:29:07.321Z,1.00
2023-04-25T11:30:07.318Z,1.30
2023-04-25T11:31:07.306Z,1.10
2023-04-25T11:32:07.319Z,0.90
2023-04-25T11:33:07.311Z,1.10
2023-04-25T11:34:07.260Z,1.20
2023-04-25T11:35:07.268Z,1.50
2023-04-25T11:36:07.240Z,1.00
2023-04-25T11:37:07.231Z,1.10
2023-04-25T11:38:07.213Z,1.20
2023-04-25T11:39:07.195Z,1.00
2023-04-25T11:40:07.208Z,0.80
2023-04-25T11:41:07.165Z,0.90
2023-04-25T11:42:07.600Z,0.80
2023-04-25T11:43:07.146Z,1.10
2023-04-25T11:44:07.154Z,0.90
2023-04-25T11:45:07.122Z,0.90
2023-04-25T11:46:07.148Z,0.80
2023-04-25T11:47:07.085Z,0.90
2023-04-25T11:48:07.118Z,0.90
2023-04-25T11:49:07.092Z,1.30
2023-04-25T11:50:07.069Z,0.90
2023-04-25T11:51:07.056Z,1.00
2023-04-25T11:52:07.065Z,1.00
2023-04-25T11:53:07.011Z,1.80
2023-04-25T11:54:07.003Z,1.10
2023-04-25T11:55:08.436Z,0.90
2023-04-25T11:56:07.105Z,0.90
2023-04-25T11:57:06.975Z,1.10
2023-04-25T11:58:06.965Z,1.00
2023-04-25T11:59:07.923Z,1.00
2023-04-25T12:00:06.935Z,1.00
2023-04-25T12:01:06.918Z,0.90
2023-04-25T12:02:06.909Z,1.10
2023-04-25T12:03:07.036Z,1.20
2023-04-25T12:04:07.097Z,1.20
2023-04-25T12:05:21.569Z,1.10
2023-04-25T12:06:08.109Z,1.20
2023-04-25T12:07:06.838Z,0.90
2023-04-25T12:08:06.826Z,1.00
2023-04-25T12:09:06.823Z,1.00
2023-04-25T12:10:06.814Z,0.80
2023-04-25T12:11:06.785Z,0.70
2023-04-25T12:12:07.086Z,0.80
2023-04-25T12:13:06.767Z,0.80
2023-04-25T12:14:06.747Z,0.70
2023-04-25T12:15:06.735Z,0.90
2023-04-25T12:16:06.741Z,0.70
2023-04-25T12:17:06.700Z,1.00
2023-04-25T12:18:06.731Z,0.80
2023-04-25T12:19:06.688Z,0.80
2023-04-25T12:20:06.697Z,0.80
2023-04-25T12:21:06.672Z,0.80
2023-04-25T12:22:06.652Z,0.60
2023-04-25T12:23:06.653Z,0.70
2023-04-25T12:24:06.622Z,1.00
2023-04-25T12:25:06.608Z,0.70
2023-04-25T12:26:06.586Z,0.90
2023-04-25T12:27:06.609Z,0.80
2023-04-25T12:28:06.560Z,1.10
2023-04-25T12:29:06.549Z,1.00
2023-04-25T12:30:06.571Z,0.90
2023-04-25T12:31:06.536Z,0.70
2023-04-25T12:32:06.516Z,0.90
2023-04-25T12:33:06.563Z,0.90
2023-04-25T12:34:06.495Z,0.90
2023-04-25T12:35:06.484Z,0.80
2023-04-25T12:36:06.654Z,1.00
2023-04-25T12:37:06.443Z,0.90
2023-04-25T12:38:06.478Z,0.70
2023-04-25T12:39:06.421Z,0.80
2023-04-25T12:40:06.447Z,0.70
2023-04-25T12:41:13.463Z,0.90
2023-04-25T12:42:09.253Z,0.70
2023-04-25T12:43:06.372Z,1.00
2023-04-25T12:44:06.374Z,0.60
2023-04-25T12:45:06.347Z,0.70
2023-04-25T12:46:06.328Z,0.70
2023-04-25T12:47:06.448Z,0.60
2023-04-25T12:48:06.339Z,0.70
2023-04-25T12:49:17.552Z,0.60
2023-04-25T12:50:07.419Z,0.70
2023-04-25T12:51:06.265Z,0.70
2023-04-25T12:52:06.258Z,0.70
2023-04-25T12:53:06.240Z,0.80
2023-04-25T12:54:06.213Z,0.50
2023-04-25T12:55:06.234Z,0.80
2023-04-25T12:56:06.200Z,0.70
2023-04-25T12:57:06.204Z,0.70
2023-04-25T12:58:06.168Z,0.60
2023-04-25T12:59:06.170Z,1.10
2023-04-25T13:00:06.154Z,0.70
2023-04-25T13:01:06.162Z,0.90
2023-04-25T13:02:06.130Z,0.80
2023-04-25T13:03:06.206Z,0.80
2023-04-25T13:04:06.163Z,0.80
2023-04-25T13:05:06.097Z,1.40
2023-04-25T13:06:06.068Z,0.60
2023-04-25T13:07:06.061Z,0.90
2023-04-25T13:08:06.043Z,0.90
2023-04-25T13:09:06.035Z,1.30
2023-04-25T13:10:06.023Z,1.10
2023-04-25T13:11:06.005Z,0.80
2023-04-25T13:12:05.980Z,1.00
2023-04-25T13:13:05.988Z,0.90
2023-04-25T13:14:06.070Z,1.00
2023-04-25T13:15:05.986Z,0.70
2023-04-25T13:16:05.978Z,0.90
2023-04-25T13:17:06.005Z,1.00
2023-04-25T13:18:05.940Z,1.00
2023-04-25T13:19:05.931Z,0.90
2023-04-25T13:20:05.911Z,0.90
2023-04-25T13:21:05.871Z,1.20
2023-04-25T13:22:05.915Z,0.90
2023-04-25T13:23:05.850Z,0.80
2023-04-25T13:24:05.832Z,0.90
2023-04-25T13:25:05.833Z,0.90
2023-04-25T13:26:05.809Z,0.60
2023-04-25T13:27:05.791Z,0.60
2023-04-25T13:28:05.801Z,0.70
2023-04-25T13:29:05.771Z,0.80
2023-04-25T13:30:05.767Z,0.70
2023-04-25T13:31:05.739Z,0.70
2023-04-25T13:32:05.728Z,0.80
2023-04-25T13:33:05.747Z,0.70
2023-04-25T13:34:05.741Z,0.70
2023-04-25T13:35:07.839Z,0.80
2023-04-25T13:36:05.678Z,0.80
2023-04-25T13:37:05.683Z,0.80
2023-04-25T13:38:05.650Z,0.80
2023-04-25T13:39:05.633Z,0.90
2023-04-25T13:40:05.668Z,0.80
2023-04-25T13:41:05.608Z,0.80
2023-04-25T13:42:05.589Z,0.90
2023-04-25T13:43:05.582Z,0.90
2023-04-25T13:44:05.592Z,0.90
2023-04-25T13:45:05.597Z,0.80
2023-04-25T13:46:05.616Z,0.70
2023-04-25T13:47:05.590Z,0.70
2023-04-25T13:48:05.546Z,1.00
2023-04-25T13:49:12.184Z,0.80
2023-04-25T13:50:06.498Z,0.80
2023-04-25T13:51:05.488Z,0.70
2023-04-25T13:52:05.479Z,0.90
2023-04-25T13:53:05.449Z,0.90
2023-04-25T13:54:05.445Z,0.80
2023-04-25T13:55:05.435Z,0.90
2023-04-25T13:56:05.449Z,1.40
2023-04-25T13:57:05.405Z,0.90
2023-04-25T13:58:05.381Z,0.90
2023-04-25T13:59:05.411Z,1.00
2023-04-25T14:00:05.357Z,0.80
2023-04-25T14:01:05.405Z,1.00
2023-04-25T14:02:05.338Z,1.00
2023-04-25T14:03:05.431Z,1.20
2023-04-25T14:04:05.434Z,1.00
2023-04-25T14:05:05.566Z,1.00
2023-04-25T14:06:05.282Z,1.00
2023-04-25T14:07:05.271Z,1.30
2023-04-25T14:08:05.252Z,0.70
2023-04-25T14:09:05.356Z,1.10
2023-04-25T14:10:05.230Z,0.80
2023-04-25T14:11:05.222Z,1.10
2023-04-25T14:12:05.215Z,0.90
2023-04-25T14:13:05.195Z,1.00
2023-04-25T14:14:05.183Z,1.20
2023-04-25T14:15:05.162Z,1.00
2023-04-25T14:16:05.175Z,1.20
2023-04-25T14:17:05.138Z,1.00
2023-04-25T14:18:05.161Z,1.00
2023-04-25T14:19:05.136Z,1.00
2023-04-25T14:20:05.100Z,0.90
2023-04-25T14:21:05.077Z,1.10
2023-04-25T14:22:05.084Z,0.90
2023-04-25T14:23:05.065Z,1.30
2023-04-25T14:24:05.073Z,1.10
2023-04-25T14:25:05.035Z,1.50
2023-04-25T14:26:05.025Z,1.10
2023-04-25T14:27:05.018Z,1.00
2023-04-25T14:28:05.007Z,0.80
2023-04-25T14:29:04.992Z,0.80
2023-04-25T14:30:04.971Z,0.80
2023-04-25T14:31:04.986Z,0.90
2023-04-25T14:32:04.958Z,1.00
2023-04-25T14:33:04.980Z,0.80
2023-04-25T14:34:04.922Z,1.00
2023-04-25T14:35:04.905Z,0.90
2023-04-25T14:36:04.886Z,1.30
2023-04-25T14:37:04.888Z,0.90
2023-04-25T14:38:04.862Z,0.70
2023-04-25T14:39:04.874Z,1.00
2023-04-25T14:40:04.838Z,0.70
2023-04-25T14:41:04.863Z,0.90
2023-04-25T14:42:04.819Z,0.90
2023-04-25T14:43:04.821Z,1.00
2023-04-25T14:44:04.790Z,1.00
2023-04-25T14:45:04.787Z,0.80
2023-04-25T14:46:04.767Z,0.60
2023-04-25T14:47:04.788Z,0.60
2023-04-25T14:48:04.944Z,0.70
2023-04-25T14:49:04.818Z,1.00
2023-04-25T14:50:04.718Z,0.80
2023-04-25T14:51:04.708Z,0.70
2023-04-25T14:52:04.693Z,0.60
2023-04-25T14:53:04.676Z,1.40
2023-04-25T14:54:04.670Z,0.70
2023-04-25T14:55:04.654Z,0.70
2023-04-25T14:56:04.639Z,0.70
2023-04-25T14:57:04.621Z,0.80
2023-04-25T14:58:04.612Z,0.80
2023-04-25T14:59:04.616Z,0.80
2023-04-25T15:00:04.573Z,0.80
2023-04-25T15:01:04.652Z,0.80
2023-04-25T15:02:04.573Z,0.80
2023-04-25T15:03:04.637Z,1.30
2023-04-25T15:04:04.825Z,0.80
2023-04-25T15:05:04.562Z,0.80
2023-04-25T15:06:04.499Z,0.70
2023-04-25T15:07:04.712Z,0.70
2023-04-25T15:08:04.476Z,0.50
2023-04-25T15:09:04.476Z,0.60
2023-04-25T15:10:04.467Z,0.60
2023-04-25T15:11:04.484Z,1.70
2023-04-25T15:12:04.428Z,0.60
2023-04-25T15:13:04.425Z,0.50
2023-04-25T15:14:04.424Z,0.60
2023-04-25T15:15:04.432Z,0.60
2023-04-25T15:16:04.392Z,0.60
2023-04-25T15:17:04.419Z,0.70
2023-04-25T15:18:04.371Z,0.50
2023-04-25T15:19:04.349Z,0.70
2023-04-25T15:20:04.333Z,0.50
2023-04-25T15:21:04.328Z,0.70
2023-04-25T15:22:04.294Z,0.60
2023-04-25T15:23:04.462Z,0.70
2023-04-25T15:24:04.291Z,0.60
2023-04-25T15:25:04.256Z,0.60
2023-04-25T15:26:04.246Z,0.70
2023-04-25T15:27:04.234Z,0.70
2023-04-25T15:28:04.225Z,1.20
2023-04-25T15:29:04.850Z,0.70
2023-04-25T15:30:04.197Z,0.50
2023-04-25T15:31:04.186Z,0.80
2023-04-25T15:32:04.250Z,0.70
2023-04-25T15:33:04.219Z,0.60
2023-04-25T15:34:04.149Z,0.70
2023-04-25T15:35:04.122Z,0.60
2023-04-25T15:36:04.125Z,0.60
2023-04-25T15:37:04.098Z,0.70
2023-04-25T15:38:04.100Z,0.60
2023-04-25T15:39:04.083Z,0.60
2023-04-25T15:40:04.066Z,0.80
2023-04-25T15:41:04.895Z,0.70
2023-04-25T15:42:04.041Z,0.80
2023-04-25T15:43:04.025Z,0.80
2023-04-25T15:44:04.025Z,0.70
2023-04-25T15:45:04.001Z,0.90
2023-04-25T15:46:04.029Z,0.70
2023-04-25T15:47:03.983Z,0.60
2023-04-25T15:48:04.003Z,0.80
2023-04-25T15:49:03.955Z,0.80
2023-04-25T15:50:03.929Z,0.90
2023-04-25T15:51:03.930Z,0.80
2023-04-25T15:52:03.904Z,0.70
2023-04-25T15:53:05.077Z,1.20
2023-04-25T15:54:03.892Z,0.90
2023-04-25T15:55:03.888Z,0.80
2023-04-25T15:56:03.870Z,0.70
2023-04-25T15:57:03.844Z,0.80
2023-04-25T15:58:03.823Z,1.10
2023-04-25T15:59:03.832Z,0.90
2023-04-25T16:00:03.801Z,2.00
2023-04-25T16:01:03.889Z,0.80
2023-04-25T16:02:03.978Z,0.70
2023-04-25T16:03:03.922Z,0.80
2023-04-25T16:04:03.891Z,0.70
2023-04-25T16:05:03.890Z,0.70
2023-04-25T16:06:03.729Z,0.70
2023-04-25T16:07:03.728Z,0.90
2023-04-25T16:08:03.701Z,0.80
2023-04-25T16:09:03.710Z,0.80
2023-04-25T16:10:03.684Z,0.80
2023-04-25T16:11:03.671Z,0.80
2023-04-25T16:12:03.649Z,1.00
2023-04-25T16:13:03.655Z,0.70
2023-04-25T16:14:03.614Z,0.90
2023-04-25T16:15:03.613Z,0.70
2023-04-25T16:16:03.664Z,0.90
2023-04-25T16:17:03.581Z,0.60
2023-04-25T16:18:03.640Z,0.80
2023-04-25T16:19:03.561Z,1.10
2023-04-25T16:20:03.545Z,0.90
2023-04-25T16:21:03.546Z,0.60
2023-04-25T16:22:03.516Z,0.80
2023-04-25T16:23:03.526Z,0.60
2023-04-25T16:24:03.500Z,0.50
2023-04-25T16:25:03.484Z,0.70
2023-04-25T16:26:03.473Z,0.70
2023-04-25T16:27:03.472Z,0.90
2023-04-25T16:28:03.446Z,0.50
2023-04-25T16:29:03.439Z,0.60
2023-04-25T16:30:03.417Z,0.70
2023-04-25T16:31:03.468Z,0.60
2023-04-25T16:32:03.470Z,1.10
2023-04-25T16:33:03.474Z,0.60
2023-04-25T16:34:03.358Z,0.80
2023-04-25T16:35:03.356Z,0.70
2023-04-25T16:36:03.332Z,1.40
2023-04-25T16:37:03.332Z,0.70
2023-04-25T16:38:03.316Z,1.00
2023-04-25T16:39:03.301Z,0.80
2023-04-25T16:40:03.280Z,0.80
2023-04-25T16:41:03.270Z,0.80
2023-04-25T16:42:04.814Z,0.80
2023-04-25T16:43:03.275Z,0.90
2023-04-25T16:44:03.225Z,1.00
2023-04-25T16:45:03.225Z,0.70
2023-04-25T16:46:03.199Z,2.50
2023-04-25T16:47:03.283Z,0.80
2023-04-25T16:48:03.227Z,1.20
2023-04-25T16:49:03.166Z,1.00
2023-04-25T16:50:03.149Z,1.00
2023-04-25T16:51:03.139Z,0.70
2023-04-25T16:52:03.121Z,0.70
2023-04-25T16:53:03.122Z,0.90
2023-04-25T16:54:03.091Z,0.90
2023-04-25T16:55:03.078Z,0.60
2023-04-25T16:56:03.068Z,0.90
2023-04-25T16:57:03.074Z,0.70
2023-04-25T16:58:03.053Z,0.70
2023-04-25T16:59:03.038Z,0.90
2023-04-25T17:00:03.010Z,0.80
2023-04-25T17:01:03.052Z,0.60
2023-04-25T17:02:03.053Z,0.90
2023-04-25T17:03:03.196Z,0.70
2023-04-25T17:04:03.188Z,1.00
2023-04-25T17:05:02.949Z,1.00
2023-04-25T17:06:02.942Z,0.80
2023-04-25T17:07:02.922Z,3.10
2023-04-25T17:08:02.926Z,0.90
2023-04-25T17:09:02.902Z,0.70
2023-04-25T17:10:02.886Z,0.70
2023-04-25T17:11:02.882Z,3.60
2023-04-25T17:12:02.866Z,1.00
2023-04-25T17:13:02.859Z,0.70
2023-04-25T17:14:02.837Z,1.70
2023-04-25T17:15:02.823Z,1.70
2023-04-25T17:16:02.857Z,0.90
2023-04-25T17:17:02.829Z,1.20
2023-04-25T17:18:02.908Z,0.80
2023-04-25T17:19:02.768Z,0.80
2023-04-25T17:20:02.761Z,0.90
2023-04-25T17:21:02.745Z,0.90
2023-04-25T17:22:02.730Z,1.50
2023-04-25T17:23:02.739Z,1.10
2023-04-25T17:24:02.705Z,0.80
2023-04-25T17:25:02.735Z,0.80
2023-04-25T17:26:02.677Z,0.70
2023-04-25T17:27:02.669Z,0.90
2023-04-25T17:28:02.666Z,0.90
2023-04-25T17:29:02.651Z,0.80
2023-04-25T17:30:02.633Z,1.20
2023-04-25T17:31:02.659Z,1.20
2023-04-25T17:32:02.600Z,1.40
2023-04-25T17:33:02.644Z,0.70
2023-04-25T17:34:02.574Z,1.00